Time;durP1;ratioP1;P1;durP2;ratioP2;P2;SDS_P1;SDS_P2;PMS_P1;PMS_P2;Temp;Humidity;BMP_temperature;BMP_pressure;BME280_temperature;BME280_humidity;BME280_pressure;Samples;Min_cycle;Max_cycle;Signal;HPM_P1;HPM_P2
2022/01/24 00:02:09;;;;;;;16.80;8.65;;;;;;;2.53;66.52;100782.78;5158969;28;20053;-67
2022/01/24 00:05:00;;;;;;;16.13;8.32;;;;;;;2.46;66.37;100776.88;5159732;28;20053;-65
2022/01/24 00:07:50;;;;;;;15.45;8.68;;;;;;;2.40;66.29;100777.06;5165124;28;20420;-65
2022/01/24 00:10:41;;;;;;;18.08;10.60;;;;;;;2.29;68.77;100776.56;5162267;28;20129;-66
2022/01/24 00:17:00;;;;;;;20.23;10.88;;;;;;;2.34;68.68;100761.53;5159809;28;20100;-65
2022/01/24 00:29:19;;;;;;;17.25;9.88;;;;;;;2.03;67.47;100769.50;5162185;28;20124;-66
2022/01/24 00:32:09;;;;;;;17.42;9.90;;;;;;;2.01;67.94;100755.59;5143430;28;20189;-67
2022/01/24 00:34:59;;;;;;;16.40;9.75;;;;;;;2.09;68.64;100758.84;5155908;28;20140;-66
2022/01/24 00:37:49;;;;;;;22.10;10.85;;;;;;;2.11;68.85;100743.94;5162450;28;20062;-66
2022/01/24 00:40:42;;;;;;;17.25;9.43;;;;;;;1.98;68.21;100750.44;5161666;28;20185;-65
2022/01/24 00:43:54;;;;;;;18.73;9.90;;;;;;;1.83;68.22;100754.41;5174518;28;20188;-65
2022/01/24 00:46:50;;;;;;;16.63;9.55;;;;;;;1.69;67.12;100736.50;5161730;28;20061;-66
2022/01/24 00:49:52;;;;;;;16.10;9.18;;;;;;;1.73;67.35;100747.72;5161807;28;20054;-66
2022/01/24 00:55:50;;;;;;;17.15;9.50;;;;;;;1.58;67.50;100754.25;5161281;28;20149;-66
2022/01/24 00:58:40;;;;;;;17.52;9.32;;;;;;;1.59;67.20;100767.28;5173959;28;20500;-66
2022/01/24 01:01:30;;;;;;;18.63;10.07;;;;;;;1.55;68.23;100760.41;5164440;28;20505;-65
2022/01/24 01:04:25;;;;;;;20.27;10.77;;;;;;;1.52;68.57;100762.25;5166092;28;20531;-67
2022/01/24 01:07:26;;;;;;;18.95;9.15;;;;;;;1.52;67.49;100764.88;5161617;28;20053;-67
2022/01/24 01:19:44;;;;;;;21.63;10.82;;;;;;;1.12;68.29;100739.84;5165929;28;20140;-66
2022/01/24 01:22:34;;;;;;;19.02;10.38;;;;;;;1.07;68.19;100736.50;5168973;28;20044;-66
2022/01/24 01:25:24;;;;;;;18.50;10.35;;;;;;;1.25;68.62;100775.19;5177989;28;20049;-67
2022/01/24 01:28:15;;;;;;;18.05;10.10;;;;;;;1.24;68.20;100783.06;5165347;28;20112;-66
2022/01/24 01:31:11;;;;;;;18.60;10.77;;;;;;;1.20;67.99;100774.47;5161556;28;20132;-66
2022/01/24 01:52:40;;;;;;;21.00;10.80;;;;;;;1.20;69.64;100766.63;5167019;28;20078;-66
2022/01/24 01:55:40;;;;;;;21.38;10.75;;;;;;;1.09;69.71;100771.25;5164732;28;20136;-66
2022/01/24 01:58:30;;;;;;;17.73;9.93;;;;;;;0.93;68.78;100756.00;5164589;28;20065;-65
2022/01/24 02:01:20;;;;;;;17.67;9.43;;;;;;;0.99;68.34;100772.41;5164592;28;20050;-65
2022/01/24 02:04:11;;;;;;;19.13;10.07;;;;;;;0.93;68.78;100771.69;5164968;28;20050;-66
2022/01/24 02:07:02;;;;;;;16.08;9.32;;;;;;;0.83;68.85;100758.88;5174777;28;20438;-66
2022/01/24 02:09:52;;;;;;;18.73;10.57;;;;;;;0.88;69.31;100768.31;5164355;28;20188;-66
2022/01/24 02:12:42;;;;;;;21.73;10.23;;;;;;;0.87;69.01;100766.59;5164036;28;20082;-68
2022/01/24 02:19:04;;;;;;;19.58;10.75;;;;;;;0.81;69.13;100760.69;5154071;28;20144;-66
2022/01/24 02:24:58;;;;;;;25.30;11.82;;;;;;;1.08;70.04;100749.50;5164447;28;20582;-66
2022/01/24 02:27:55;;;;;;;23.00;11.43;;;;;;;1.03;70.31;100740.09;5164269;28;20047;-65
2022/01/24 02:33:56;;;;;;;20.45;10.82;;;;;;;0.93;69.09;100745.56;5164692;28;20326;-66
2022/01/24 02:36:47;;;;;;;17.52;9.52;;;;;;;0.90;69.37;100737.81;5164387;28;20057;-65
2022/01/24 02:39:59;;;;;;;17.63;10.32;;;;;;;0.81;68.24;100731.97;5164712;28;20058;-66
2022/01/24 02:48:23;;;;;;;20.48;11.32;;;;;;;0.88;69.70;100742.19;5166047;28;20460;-66
2022/01/24 02:49:17;;;;;;;22.58;10.27;;;;;;;0.83;69.27;100737.97;5176642;28;20053;-66
2022/01/24 02:52:10;;;;;;;19.80;10.35;;;;;;;0.79;69.13;100729.38;5163916;28;20136;-66
2022/01/24 02:55:00;;;;;;;19.75;10.57;;;;;;;0.70;69.14;100721.81;5163767;28;20045;-66
2022/01/24 02:57:50;;;;;;;20.20;10.18;;;;;;;0.85;68.36;100746.66;5163230;28;20069;-66
2022/01/24 03:00:39;;;;;;;20.65;11.20;;;;;;;0.81;68.94;100742.41;5172070;28;20054;-67
2022/01/24 03:03:30;;;;;;;19.98;10.35;;;;;;;0.82;69.69;100734.53;5163771;28;20424;-66
2022/01/24 03:06:20;;;;;;;17.15;9.98;;;;;;;0.77;69.03;100730.34;5163092;28;20104;-66
2022/01/24 03:09:11;;;;;;;19.70;10.85;;;;;;;0.74;68.34;100723.44;5167932;28;20098;-66
2022/01/24 03:14:51;;;;;;;20.13;10.68;;;;;;;0.69;69.24;100728.75;5163387;28;20053;-66
2022/01/24 03:17:41;;;;;;;19.35;10.10;;;;;;;0.67;68.45;100724.50;5163114;28;20110;-66
2022/01/24 03:20:31;;;;;;;22.13;10.80;;;;;;;0.61;70.32;100720.28;5163592;28;20049;-66
2022/01/24 03:23:23;;;;;;;25.83;12.02;;;;;;;0.81;69.90;100722.38;5162625;28;20077;-66
2022/01/24 03:26:13;;;;;;;25.02;12.10;;;;;;;0.87;70.63;100724.81;5163104;28;20181;-66
2022/01/24 03:29:04;;;;;;;25.60;12.10;;;;;;;1.07;69.88;100703.41;5163799;28;20090;-66
2022/01/24 03:31:54;;;;;;;26.83;12.60;;;;;;;1.16;70.59;100716.22;5176095;28;20047;-65
2022/01/24 03:34:44;;;;;;;21.58;11.63;;;;;;;0.99;70.47;100717.56;5162869;28;20074;-66
2022/01/24 03:37:35;;;;;;;22.35;11.60;;;;;;;0.87;70.32;100721.38;5158883;28;20061;-66
2022/01/24 03:40:25;;;;;;;20.50;11.77;;;;;;;0.87;70.93;100718.75;5162822;28;20046;-66
2022/01/24 03:43:17;;;;;;;26.63;12.65;;;;;;;1.02;69.84;100712.25;5162942;28;20136;-66
2022/01/24 03:46:25;;;;;;;23.58;11.43;;;;;;;0.84;70.52;100704.00;5162719;28;20151;-66
2022/01/24 03:52:24;;;;;;;24.52;12.57;;;;;;;0.76;70.48;100708.56;5166980;28;20065;-66
2022/01/24 03:55:15;;;;;;;21.27;11.50;;;;;;;0.71;70.41;100702.63;5162556;28;20108;-66
2022/01/24 03:58:05;;;;;;;20.77;11.30;;;;;;;0.58;69.89;100685.56;5158302;28;20058;-66
2022/01/24 04:00:55;;;;;;;24.52;11.82;;;;;;;0.67;69.16;100711.44;5162225;28;20053;-66
2022/01/24 04:03:45;;;;;;;19.73;11.20;;;;;;;0.62;69.13;100713.28;5162742;28;20160;-66
2022/01/24 04:06:36;;;;;;;24.45;10.90;;;;;;;0.58;68.66;100716.88;5162228;28;20467;-66
2022/01/24 04:09:26;;;;;;;24.30;12.27;;;;;;;0.64;69.60;100716.72;5165705;28;20590;-66
2022/01/24 04:12:16;;;;;;;21.83;11.80;;;;;;;0.58;68.76;100707.28;5162297;28;20456;-66
2022/01/24 04:15:24;;;;;;;19.48;11.20;;;;;;;0.55;68.38;100706.50;5147669;28;20051;-66
2022/01/24 04:18:39;;;;;;;22.13;11.85;;;;;;;0.38;69.36;100696.50;5143026;28;20153;-68
2022/01/24 04:21:33;;;;;;;21.80;11.50;;;;;;;0.50;69.67;100710.97;5161644;28;20045;-66
2022/01/24 04:24:25;;;;;;;22.63;10.98;;;;;;;0.35;69.14;100693.97;5175960;28;20165;-66
2022/01/24 04:27:15;;;;;;;20.25;11.10;;;;;;;0.41;69.74;100707.72;5181390;22;20056;-80
2022/01/24 04:30:06;;;;;;;21.75;11.93;;;;;;;0.36;70.47;100691.31;5198131;28;20061;-81
2022/01/24 04:32:56;;;;;;;22.15;12.32;;;;;;;0.60;69.70;100679.41;5192695;28;20068;-82
2022/01/24 04:35:47;;;;;;;22.05;12.13;;;;;;;0.52;70.10;100693.53;5204123;28;20431;-80
2022/01/24 04:38:37;;;;;;;24.35;12.13;;;;;;;0.43;69.81;100694.63;5190280;28;20084;-81
2022/01/24 04:41:35;;;;;;;24.55;11.75;;;;;;;0.39;69.40;100699.06;5197719;28;20144;-83
2022/01/24 04:50:21;;;;;;;24.83;12.55;;;;;;;0.41;70.29;100699.03;5184341;28;20100;-82
2022/01/24 04:51:07;;;;;;;25.10;12.57;;;;;;;0.42;70.46;100683.31;5185402;28;20482;-81
2022/01/24 04:56:59;;;;;;;24.23;12.60;;;;;;;0.37;69.49;100724.34;5204453;28;20056;-82
2022/01/24 04:59:51;;;;;;;21.15;11.02;;;;;;;0.23;69.15;100721.19;5204554;28;20052;-81
2022/01/24 05:02:41;;;;;;;23.48;12.05;;;;;;;0.27;69.99;100722.84;5201028;28;20138;-82
2022/01/24 05:05:31;;;;;;;23.80;12.10;;;;;;;0.12;70.03;100708.41;5209272;28;20044;-81
2022/01/24 05:08:22;;;;;;;26.20;13.25;;;;;;;0.22;70.78;100715.13;5202133;28;20040;-81
2022/01/24 05:11:17;;;;;;;24.73;13.52;;;;;;;0.34;70.28;100687.03;5204413;28;20669;-82
2022/01/24 05:24:11;;;;;;;21.73;12.40;;;;;;;0.26;69.75;100705.47;5099025;29;20608;-82
2022/01/24 05:27:01;;;;;;;24.55;13.60;;;;;;;0.39;70.96;100727.75;5217194;28;20208;-81
2022/01/24 05:29:53;;;;;;;26.25;13.82;;;;;;;0.25;70.18;100693.31;5203930;28;20613;-82
2022/01/24 05:32:44;;;;;;;29.90;14.13;;;;;;;0.49;70.21;100715.34;5189777;28;20048;-81
2022/01/24 05:35:34;;;;;;;31.70;15.23;;;;;;;0.61;71.32;100706.38;5205374;28;20053;-82
2022/01/24 05:38:25;;;;;;;27.95;15.13;;;;;;;0.80;70.54;100719.81;5205034;28;20430;-81
2022/01/24 05:41:16;;;;;;;32.97;15.82;;;;;;;0.79;71.11;100712.84;5203448;28;20092;-81
2022/01/24 05:44:07;;;;;;;27.08;14.85;;;;;;;0.77;70.35;100717.28;5215546;28;20552;-82
2022/01/24 05:46:57;;;;;;;28.70;14.50;;;;;;;0.64;69.91;100701.06;5186380;28;20127;-82
2022/01/24 05:49:48;;;;;;;27.25;14.75;;;;;;;0.81;70.33;100724.97;5207837;28;20207;-81
2022/01/24 05:52:38;;;;;;;28.92;14.82;;;;;;;0.78;69.16;100718.97;5193850;28;20046;-82
2022/01/24 05:55:28;;;;;;;25.95;13.73;;;;;;;0.78;69.99;100714.63;5208054;28;20053;-82
2022/01/24 05:58:18;;;;;;;29.00;14.23;;;;;;;0.71;69.68;100702.63;5200140;28;20183;-80
2022/01/24 06:01:08;;;;;;;25.30;13.20;;;;;;;0.72;70.06;100703.47;5194153;28;20089;-82
2022/01/24 06:03:59;;;;;;;25.35;13.30;;;;;;;0.65;70.61;100705.38;5191091;28;20112;-81
2022/01/24 06:06:50;;;;;;;28.45;14.50;;;;;;;0.76;71.13;100711.16;5208149;28;20056;-81
2022/01/24 06:09:40;;;;;;;41.55;17.00;;;;;;;0.77;71.11;100725.13;5207656;28;20049;-80
2022/01/24 06:12:31;;;;;;;32.08;16.85;;;;;;;0.93;70.31;100735.13;5207948;28;20408;-82
2022/01/24 06:15:21;;;;;;;31.90;16.15;;;;;;;0.99;70.71;100728.00;5194493;28;20056;-80
2022/01/24 06:18:11;;;;;;;31.40;16.10;;;;;;;0.94;70.38;100713.31;5208302;28;20052;-82
2022/01/24 06:21:05;;;;;;;30.05;15.82;;;;;;;1.05;70.73;100710.41;5208854;28;20073;-82
2022/01/24 06:23:55;;;;;;;30.52;16.70;;;;;;;1.06;69.98;100721.72;5195454;28;20061;-80
2022/01/24 06:26:46;;;;;;;31.20;15.88;;;;;;;1.11;69.60;100719.84;5210280;28;20056;-81
2022/01/24 06:29:36;;;;;;;36.28;18.77;;;;;;;1.27;70.22;100728.97;5207170;28;20060;-82
2022/01/24 06:32:26;;;;;;;33.17;17.42;;;;;;;1.21;70.39;100710.84;5206823;28;20045;-81
2022/01/24 06:35:16;;;;;;;29.88;16.65;;;;;;;1.16;69.88;100694.47;5199907;28;20052;-82
2022/01/24 06:38:06;;;;;;;31.33;16.73;;;;;;;1.35;70.15;100708.69;5206544;28;20072;-80
2022/01/24 06:40:57;;;;;;;32.75;17.40;;;;;;;1.63;70.04;100716.63;5198288;28;20049;-81
2022/01/24 06:43:47;;;;;;;34.80;18.42;;;;;;;1.56;70.50;100711.63;5202211;28;20072;-82
2022/01/24 06:46:37;;;;;;;35.72;18.83;;;;;;;2.04;70.46;100726.72;5221811;28;20121;-82
2022/01/24 06:49:28;;;;;;;40.08;21.52;;;;;;;2.15;70.53;100727.22;5188523;28;20130;-81
2022/01/24 06:52:20;;;;;;;44.20;20.02;;;;;;;2.33;71.13;100713.56;5204655;28;20616;-83
2022/01/24 06:55:10;;;;;;;38.85;20.52;;;;;;;2.39;70.57;100735.25;5190757;28;20119;-83
2022/01/24 06:58:00;;;;;;;37.15;19.55;;;;;;;2.75;68.84;100743.66;5200163;28;20068;-82
2022/01/24 07:00:50;;;;;;;32.55;18.40;;;;;;;2.65;69.39;100747.47;5209837;28;20052;-82
2022/01/24 07:03:40;;;;;;;35.42;18.55;;;;;;;2.67;69.21;100767.47;5204153;28;20161;-82
2022/01/24 07:06:31;;;;;;;36.35;18.08;;;;;;;2.50;69.07;100754.91;5208175;28;20049;-81
2022/01/24 07:09:21;;;;;;;36.33;18.30;;;;;;;2.61;68.93;100765.03;5190803;28;20499;-83
2022/01/24 07:12:11;;;;;;;30.90;18.13;;;;;;;2.58;69.37;100762.50;5185158;28;20107;-83
2022/01/24 07:15:08;;;;;;;34.03;18.10;;;;;;;2.92;68.01;100774.53;5209982;28;20049;-83
2022/01/24 07:20:52;;;;;;;;;;;;;;;2.84;68.00;100780.00;5219694;28;20320;-81
2022/01/24 07:23:42;;;;;;;31.20;15.93;;;;;;;2.63;68.68;100765.84;5220798;28;19931;-83
2022/01/24 07:26:32;;;;;;;33.30;16.73;;;;;;;2.77;68.79;100757.53;5215286;28;20053;-83
2022/01/24 07:29:23;;;;;;;30.83;16.85;;;;;;;2.76;68.14;100750.59;5200313;28;20120;-82
2022/01/24 07:32:13;;;;;;;35.63;17.58;;;;;;;3.03;68.11;100773.22;5202213;28;20045;-81
2022/01/24 07:35:04;;;;;;;29.10;16.98;;;;;;;2.97;67.56;100785.69;5200207;28;20045;-82
2022/01/24 07:37:54;;;;;;;31.92;16.00;;;;;;;3.05;68.09;100796.78;5197764;28;20441;-81
2022/01/24 07:40:47;;;;;;;33.40;16.30;;;;;;;2.97;67.90;100783.06;5193179;28;20056;-83
2022/01/24 07:43:38;;;;;;;37.40;16.80;;;;;;;2.83;68.91;100786.16;5186022;28;20057;-82
2022/01/24 07:46:28;;;;;;;31.48;16.70;;;;;;;3.07;68.77;100787.09;5206314;28;20099;-81
2022/01/24 07:49:19;;;;;;;24.92;15.18;;;;;;;3.26;67.22;100789.94;5199846;28;20183;-82
2022/01/24 07:52:10;;;;;;;28.15;15.02;;;;;;;3.37;67.98;100802.66;5208705;28;20052;-81
2022/01/24 07:55:01;;;;;;;30.48;15.80;;;;;;;3.45;67.58;100805.88;5200076;28;20171;-83
2022/01/24 07:57:51;;;;;;;49.08;16.15;;;;;;;3.84;65.54;100798.34;5187328;28;20064;-83
2022/01/24 08:00:41;;;;;;;28.80;15.02;;;;;;;3.39;66.94;100801.69;5195043;28;20196;-83
2022/01/24 08:03:31;;;;;;;29.58;15.32;;;;;;;3.58;67.03;100801.91;5192124;28;20052;-83
2022/01/24 08:06:21;;;;;;;38.08;14.55;;;;;;;3.37;67.32;100805.28;5206337;28;20088;-83
2022/01/24 08:09:12;;;;;;;32.38;15.43;;;;;;;3.32;68.73;100825.56;5205390;28;20056;-83
2022/01/24 08:12:03;;;;;;;25.45;15.05;;;;;;;3.50;67.28;100803.94;5206449;28;20049;-83
2022/01/24 08:14:53;;;;;;;31.27;15.80;;;;;;;3.55;66.91;100807.25;5206673;28;20136;-83
2022/01/24 08:17:47;;;;;;;29.42;15.32;;;;;;;3.76;66.46;100800.38;5204353;28;20056;-81
2022/01/24 08:20:38;;;;;;;29.50;16.45;;;;;;;3.70;66.98;100805.84;5205650;28;20045;-81
2022/01/24 08:23:30;;;;;;;31.10;16.92;;;;;;;3.87;65.97;100786.84;5205588;28;20555;-82
2022/01/24 08:26:21;;;;;;;29.42;15.85;;;;;;;3.85;67.07;100783.44;5191286;28;20052;-83
2022/01/24 08:29:13;;;;;;;27.88;15.57;;;;;;;3.85;66.95;100783.44;5205137;28;20156;-84
2022/01/24 08:32:04;;;;;;;28.63;16.80;;;;;;;3.94;66.82;100786.59;5178853;28;20049;-83
2022/01/24 08:34:54;;;;;;;28.85;16.77;;;;;;;4.02;66.20;100780.19;5203736;28;20056;-81
2022/01/24 08:37:53;;;;;;;29.08;16.92;;;;;;;3.94;66.42;100754.22;5190894;28;20645;-81
2022/01/24 08:40:46;;;;;;;25.73;15.98;;;;;;;4.30;65.67;100795.72;5204439;28;20053;-82
2022/01/24 08:43:56;;;;;;;30.35;16.85;;;;;;;4.34;66.09;100797.28;5191211;28;20107;-83
2022/01/24 08:46:49;;;;;;;28.40;16.70;;;;;;;4.74;65.29;100786.06;5189651;28;20041;-83
2022/01/24 08:49:39;;;;;;;26.33;15.40;;;;;;;4.90;65.39;100792.41;5207521;28;20052;-83
2022/01/24 08:52:29;;;;;;;24.77;15.13;;;;;;;5.25;64.08;100781.31;5197694;28;20109;-83
2022/01/24 08:55:37;;;;;;;22.58;13.40;;;;;;;5.74;62.62;100779.16;5197364;28;20061;-83
2022/01/24 08:58:28;;;;;;;25.60;13.63;;;;;;;6.00;61.12;100802.53;5204892;28;20056;-80
2022/01/24 09:01:18;;;;;;;20.40;13.07;;;;;;;6.21;61.01;100778.75;5204772;28;20128;-81
2022/01/24 09:04:09;;;;;;;23.05;13.90;;;;;;;6.51;60.14;100795.72;5201595;28;20095;-81
2022/01/24 09:07:03;;;;;;;23.70;13.60;;;;;;;6.90;59.38;100781.53;5199948;28;20076;-81
2022/01/24 09:09:54;;;;;;;22.60;13.80;;;;;;;7.50;58.28;100786.38;5209509;28;20519;-83
2022/01/24 09:12:49;;;;;;;24.33;13.30;;;;;;;7.75;57.31;100778.03;5205363;28;20044;-83
2022/01/24 09:15:40;;;;;;;18.98;12.38;;;;;;;7.91;55.52;100794.78;5186872;28;20104;-83
2022/01/24 09:18:30;;;;;;;18.83;11.82;;;;;;;8.28;55.17;100808.59;5205803;28;20053;-82
2022/01/24 09:21:23;;;;;;;19.83;11.75;;;;;;;8.29;55.21;100804.16;5188425;28;20056;-82
2022/01/24 09:24:13;;;;;;;17.02;10.73;;;;;;;8.59;53.70;100785.75;5205402;28;20621;-82
2022/01/24 09:27:04;;;;;;;16.65;10.00;;;;;;;8.54;54.12;100782.50;5194560;28;20132;-80
2022/01/24 09:29:54;;;;;;;13.48;9.15;;;;;;;8.97;52.57;100787.97;5207397;28;20041;-81
2022/01/24 09:32:44;;;;;;;14.75;9.23;;;;;;;8.31;53.70;100787.28;5191424;28;20060;-80
2022/01/24 09:35:35;;;;;;;16.48;10.13;;;;;;;7.51;56.26;100781.00;5195809;28;20053;-82
2022/01/24 09:38:32;;;;;;;12.68;9.60;;;;;;;7.45;57.05;100783.13;5207521;28;20076;-81
2022/01/24 09:41:23;;;;;;;13.00;7.70;;;;;;;6.99;57.50;100796.91;5204398;28;20052;-81
2022/01/24 09:44:14;;;;;;;13.73;9.75;;;;;;;6.84;57.55;100773.94;5187626;28;20049;-82
2022/01/24 09:47:05;;;;;;;12.00;8.65;;;;;;;6.88;58.46;100804.47;5204062;28;20325;-80
2022/01/24 09:49:56;;;;;;;14.52;9.05;;;;;;;6.68;57.96;100783.53;5209942;28;20049;-81
2022/01/24 09:52:48;;;;;;;12.30;9.35;;;;;;;6.61;58.30;100776.84;5206608;28;20057;-83
2022/01/24 09:55:39;;;;;;;13.75;8.93;;;;;;;6.69;57.96;100787.84;5206587;28;20610;-82
2022/01/24 09:58:35;;;;;;;16.23;8.77;;;;;;;6.83;58.14;100809.13;5199936;28;20044;-82
2022/01/24 10:01:25;;;;;;;13.90;8.95;;;;;;;6.61;57.86;100788.25;5198262;28;20459;-82
2022/01/24 10:04:19;;;;;;;11.52;8.63;;;;;;;6.80;58.39;100804.03;5196148;28;20698;-83
2022/01/24 10:07:13;;;;;;;11.55;8.60;;;;;;;6.79;57.63;100803.16;5208600;28;20049;-83
2022/01/24 10:10:03;;;;;;;12.03;8.60;;;;;;;6.66;57.83;100780.97;5193258;28;20104;-83
2022/01/24 10:19:15;;;;;;;12.23;9.05;;;;;;;6.59;58.47;100790.13;5201412;28;20695;-83
2022/01/24 10:22:25;;;;;;;14.90;8.75;;;;;;;6.70;57.93;100768.50;5219269;28;20064;-82
2022/01/24 10:25:15;;;;;;;13.43;9.32;;;;;;;6.75;58.63;100784.91;5210389;28;20052;-83
2022/01/24 10:28:05;;;;;;;14.40;9.05;;;;;;;6.61;58.13;100782.97;5207068;28;20463;-81
2022/01/24 10:31:16;;;;;;;11.60;9.02;;;;;;;6.97;57.56;100790.84;5206605;28;20056;-82
2022/01/24 10:34:17;;;;;;;11.93;8.20;;;;;;;6.72;57.30;100748.16;5191538;28;20056;-81
2022/01/24 10:37:07;;;;;;;14.30;8.55;;;;;;;6.85;57.65;100756.31;5205248;28;20081;-83
2022/01/24 10:40:05;;;;;;;17.13;8.50;;;;;;;6.98;57.08;100752.13;5198743;28;20057;-81
2022/01/24 10:43:16;;;;;;;12.98;7.95;;;;;;;7.10;57.22;100751.50;5216638;28;20056;-82
2022/01/24 10:46:08;;;;;;;11.90;7.40;;;;;;;7.17;57.16;100762.59;5202700;28;20056;-82
2022/01/24 10:49:06;;;;;;;11.50;6.78;;;;;;;6.23;58.06;100740.88;5205233;28;20057;-83
2022/01/24 10:52:27;;;;;;;15.88;7.00;;;;;;;6.28;57.92;100728.34;5202557;28;20045;-83
2022/01/24 10:55:26;;;;;;;9.23;6.78;;;;;;;6.39;58.42;100713.78;5191774;28;20054;-82
2022/01/24 10:58:18;;;;;;;9.70;5.95;;;;;;;6.33;59.25;100736.88;5218350;28;20519;-82
2022/01/24 11:01:08;;;;;;;8.75;5.68;;;;;;;7.09;56.93;100734.00;5190049;28;20053;-84
2022/01/24 11:04:08;;;;;;;7.70;5.18;;;;;;;6.76;57.53;100747.09;5208001;28;20072;-83
2022/01/24 11:07:01;;;;;;;8.15;5.07;;;;;;;6.35;58.20;100736.78;5205733;28;20127;-84
2022/01/24 11:09:52;;;;;;;8.90;5.03;;;;;;;6.47;59.66;100746.75;5217952;28;20113;-82
2022/01/24 11:12:44;;;;;;;10.43;4.85;;;;;;;6.53;58.78;100749.09;5204230;28;20232;-82
2022/01/24 11:15:38;;;;;;;11.88;5.93;;;;;;;6.83;58.88;100754.63;5204184;28;20064;-83
2022/01/24 11:18:28;;;;;;;12.30;5.50;;;;;;;6.82;58.18;100738.84;5205092;28;20666;-82
2022/01/24 11:21:18;;;;;;;7.60;5.20;;;;;;;6.85;57.22;100716.75;5212901;28;20094;-81
2022/01/24 11:24:09;;;;;;;7.88;5.55;;;;;;;7.42;56.46;100741.09;5215682;28;20099;-80
2022/01/24 11:27:00;;;;;;;9.32;5.72;;;;;;;7.13;57.76;100722.34;5223052;28;20057;-82
2022/01/24 11:29:52;;;;;;;11.77;6.32;;;;;;;7.56;57.36;100743.84;5200627;28;20049;-82
2022/01/24 11:33:04;;;;;;;8.70;6.00;;;;;;;8.03;56.45;100744.84;5199943;28;20068;-81
2022/01/24 11:36:00;;;;;;;9.13;6.05;;;;;;;7.83;55.31;100709.81;5200876;28;20038;-80
2022/01/24 11:38:57;;;;;;;8.52;5.95;;;;;;;8.21;55.40;100727.94;5204986;28;20045;-81
2022/01/24 11:41:48;;;;;;;12.55;6.35;;;;;;;8.07;55.98;100720.78;5217117;28;20064;-81
2022/01/24 11:44:49;;;;;;;12.32;6.97;;;;;;;7.45;56.96;100727.69;5198760;28;20143;-81
2022/01/24 11:47:42;;;;;;;11.27;7.20;;;;;;;7.56;55.99;100732.44;5187517;28;20091;-83
2022/01/24 11:50:37;;;;;;;11.52;6.63;;;;;;;8.28;55.50;100724.03;5175744;28;20638;-83
2022/01/24 11:53:29;;;;;;;7.68;5.07;;;;;;;7.41;56.81;100710.31;5195945;28;20088;-83
2022/01/24 11:56:24;;;;;;;11.02;5.63;;;;;;;6.71;57.61;100710.41;5188091;28;20048;-81
2022/01/24 11:59:19;;;;;;;8.30;5.43;;;;;;;7.12;57.14;100717.13;5201062;28;20044;-82
2022/01/24 12:02:13;;;;;;;11.75;6.18;;;;;;;7.59;56.39;100693.53;5189328;28;20187;-82
2022/01/24 12:05:20;;;;;;;7.07;5.32;;;;;;;7.93;54.78;100715.44;5215299;28;20060;-82
2022/01/24 12:08:51;;;;;;;9.40;5.50;;;;;;;7.90;54.24;100710.31;5204152;28;20049;-81
2022/01/24 12:11:42;;;;;;;9.70;6.25;;;;;;;7.23;57.08;100712.16;5199956;28;20061;-82
2022/01/24 12:14:52;;;;;;;13.07;6.25;;;;;;;7.81;54.81;100687.91;5203049;28;20422;-83
2022/01/24 12:17:51;;;;;;;10.10;5.85;;;;;;;8.19;54.34;100685.75;5205123;28;20060;-83
2022/01/24 12:20:42;;;;;;;9.15;5.50;;;;;;;7.57;54.85;100699.81;5205183;28;20060;-83
2022/01/24 12:23:36;;;;;;;8.13;5.10;;;;;;;7.35;55.22;100684.25;5200945;28;20053;-83
2022/01/24 12:26:47;;;;;;;14.88;5.75;;;;;;;7.38;55.90;100702.56;5192919;28;20046;-82
2022/01/24 12:29:42;;;;;;;12.48;6.72;;;;;;;7.94;55.83;100691.56;5201239;28;20042;-83
2022/01/24 12:32:31;;;;;;;;;;;;;;;7.99;54.86;100696.59;5220605;28;20075;-82
2022/01/24 12:35:29;;;;;;;13.15;5.57;;;;;;;7.93;54.83;100681.09;5200782;28;19928;-83
2022/01/24 12:38:19;;;;;;;13.35;6.00;;;;;;;7.88;55.89;100676.09;5199172;28;20132;-82
2022/01/24 12:41:16;;;;;;;7.93;6.00;;;;;;;8.45;54.44;100688.75;5188184;28;20431;-83
2022/01/24 12:46:57;;;;;;;7.63;5.75;;;;;;;8.28;55.38;100681.75;5213483;28;21400;-83
2022/01/24 12:49:51;;;;;;;8.68;6.03;;;;;;;8.45;54.16;100672.88;5204142;28;20057;-83
2022/01/24 12:52:41;;;;;;;12.15;5.68;;;;;;;8.55;53.26;100659.97;5211842;28;20057;-82
2022/01/24 12:55:31;;;;;;;9.43;5.90;;;;;;;8.13;54.25;100657.03;5204226;28;20687;-81
2022/01/24 12:58:39;;;;;;;8.63;5.75;;;;;;;7.68;55.10;100652.53;5205002;28;20545;-82
2022/01/24 13:01:32;;;;;;;7.63;5.25;;;;;;;8.11;55.24;100658.94;5200904;28;20116;-81
2022/01/24 13:04:39;;;;;;;6.97;5.27;;;;;;;8.05;55.35;100664.56;5201448;28;20083;-81
2022/01/24 13:07:31;;;;;;;9.02;5.53;;;;;;;8.37;54.60;100654.78;5216254;28;20569;-80
2022/01/24 13:10:26;;;;;;;10.82;5.18;;;;;;;7.61;56.05;100648.53;5202161;28;20115;-82
2022/01/24 13:13:22;;;;;;;7.10;4.95;;;;;;;7.90;55.52;100650.41;5202903;28;20049;-79
2022/01/24 13:22:39;;;;;;;9.77;5.38;;;;;;;7.80;55.46;100632.53;5205121;28;20063;-79
2022/01/24 13:25:36;;;;;;;12.23;5.80;;;;;;;8.29;54.83;100630.59;5203715;28;20103;-82
2022/01/24 13:28:26;;;;;;;10.10;4.97;;;;;;;7.63;55.12;100647.53;5208200;28;20049;-80
2022/01/24 13:31:16;;;;;;;10.02;5.90;;;;;;;8.17;55.69;100652.44;5205391;28;20538;-81
2022/01/24 13:34:10;;;;;;;11.15;5.38;;;;;;;8.18;56.12;100630.38;5203698;28;20111;-80
2022/01/24 13:37:06;;;;;;;9.35;5.10;;;;;;;8.14;56.25;100636.75;5200743;28;20080;-81
2022/01/24 13:39:56;;;;;;;13.13;5.13;;;;;;;8.19;56.66;100618.84;5197298;28;20167;-81
2022/01/24 13:42:47;;;;;;;11.95;5.45;;;;;;;7.92;56.44;100598.38;5203313;28;20107;-82
2022/01/24 13:45:42;;;;;;;6.40;4.63;;;;;;;8.32;55.58;100641.00;5196315;28;20051;-80
2022/01/24 13:48:39;;;;;;;7.47;4.68;;;;;;;8.28;54.94;100628.03;5188801;28;20048;-80
2022/01/24 13:51:38;;;;;;;14.73;4.82;;;;;;;8.89;52.12;100630.56;5199508;28;20056;-80
2022/01/24 13:54:29;;;;;;;7.45;4.90;;;;;;;8.62;54.00;100640.16;5202975;28;20103;-81
2022/01/24 13:57:20;;;;;;;11.85;5.72;;;;;;;8.43;54.82;100640.38;5195077;28;20057;-80
2022/01/24 14:00:11;;;;;;;11.60;5.32;;;;;;;8.37;55.01;100628.34;5187603;28;20052;-82
2022/01/24 14:03:09;;;;;;;7.35;4.90;;;;;;;7.73;55.36;100629.38;5197728;28;20072;-82
2022/01/24 14:06:17;;;;;;;6.43;4.25;;;;;;;8.24;54.92;100612.38;5186133;28;20380;-80
2022/01/24 14:09:15;;;;;;;14.25;5.10;;;;;;;8.44;54.70;100618.28;5203767;28;20052;-81
2022/01/24 14:12:09;;;;;;;9.65;5.75;;;;;;;8.55;55.08;100625.59;5198534;28;20538;-81
2022/01/24 14:15:21;;;;;;;13.63;7.15;;;;;;;7.80;55.30;100620.19;5186580;28;20141;-81
2022/01/24 14:21:13;;;;;;;12.13;6.20;;;;;;;8.00;55.52;100637.53;5201672;28;20052;-82
2022/01/24 14:24:03;;;;;;;10.65;4.18;;;;;;;8.29;54.13;100635.03;5202598;28;20072;-82
2022/01/24 14:26:53;;;;;;;9.00;4.93;;;;;;;8.33;55.41;100618.91;5183555;28;20061;-82
2022/01/24 14:29:43;;;;;;;9.27;5.05;;;;;;;8.25;54.85;100623.78;5186576;28;20514;-81
2022/01/24 14:32:38;;;;;;;6.72;3.83;;;;;;;8.16;55.12;100619.88;5202732;28;20056;-82
2022/01/24 14:35:32;;;;;;;10.57;5.50;;;;;;;8.02;54.84;100632.19;5204943;28;20097;-81
2022/01/24 14:38:30;;;;;;;14.65;6.55;;;;;;;8.36;55.08;100637.22;5204353;28;20467;-80
2022/01/24 14:41:26;;;;;;;11.95;4.30;;;;;;;8.44;55.37;100645.59;5204971;28;20049;-80
2022/01/24 14:47:30;;;;;;;9.27;3.88;;;;;;;8.53;54.81;100603.69;5206958;28;20056;-81
2022/01/24 14:50:20;;;;;;;8.00;4.05;;;;;;;8.44;55.84;100607.72;5207673;28;20144;-80
2022/01/24 14:53:12;;;;;;;14.27;3.88;;;;;;;8.52;54.68;100609.94;5207605;28;20120;-81
2022/01/24 14:56:03;;;;;;;12.05;4.03;;;;;;;8.79;54.08;100631.22;5204787;28;20115;-81
2022/01/24 14:58:53;;;;;;;11.15;6.30;;;;;;;8.52;54.34;100620.50;5187233;28;20049;-82
2022/01/24 15:01:44;;;;;;;11.88;3.63;;;;;;;8.38;56.19;100622.16;5206295;28;20195;-82
2022/01/24 15:04:35;;;;;;;6.03;3.70;;;;;;;8.45;56.47;100622.66;5206164;28;20064;-81
2022/01/24 15:07:25;;;;;;;8.27;3.90;;;;;;;8.17;56.92;100608.34;5206655;28;20045;-82